createdAt,value
2023-04-02T00:00:19.958Z,25.17
2023-04-02T00:03:04.779Z,23.83
2023-04-02T00:05:56.990Z,29.65
2023-04-02T00:08:31.120Z,29.92
2023-04-02T00:11:04.731Z,26.83
2023-04-02T00:13:42.645Z,29.45
2023-04-02T00:16:17.193Z,36.83
2023-04-02T00:18:52.894Z,31.90
2023-04-02T00:21:27.213Z,26.30
2023-04-02T00:23:59.364Z,28.33
2023-04-02T00:26:36.048Z,26.80
2023-04-02T00:29:08.016Z,27.10
2023-04-02T00:31:44.069Z,34.60
2023-04-02T00:34:20.701Z,32.25
2023-04-02T00:36:52.172Z,27.90
2023-04-02T00:39:26.356Z,28.38
2023-04-02T00:42:07.652Z,30.35
2023-04-02T00:44:44.651Z,29.45
2023-04-02T00:47:21.400Z,28.60
2023-04-02T00:49:58.295Z,22.80
2023-04-02T00:52:32.112Z,25.65
2023-04-02T00:55:09.264Z,28.88
2023-04-02T00:57:45.805Z,31.70
2023-04-02T01:00:26.493Z,25.20
2023-04-02T01:03:31.162Z,31.13
2023-04-02T01:06:05.474Z,28.45
2023-04-02T01:08:55.596Z,25.65
2023-04-02T01:11:45.501Z,32.35
2023-04-02T01:16:55.858Z,29.27
2023-04-02T01:20:09.004Z,23.27
2023-04-02T01:22:48.849Z,26.67
2023-04-02T01:27:58.991Z,24.15
2023-04-02T01:30:31.264Z,26.83
2023-04-02T01:33:02.396Z,28.67
2023-04-02T01:35:38.776Z,25.63
2023-04-02T01:38:14.741Z,29.73
2023-04-02T01:40:52.159Z,27.50
2023-04-02T01:43:28.585Z,32.33
2023-04-02T01:46:02.894Z,34.83
2023-04-02T01:48:34.029Z,29.20
2023-04-02T01:51:10.237Z,34.05
2023-04-02T01:53:40.736Z,33.42
2023-04-02T01:56:11.179Z,32.83
2023-04-02T01:58:41.781Z,28.10
2023-04-02T02:01:18.741Z,29.83
2023-04-02T02:03:49.606Z,28.10
2023-04-02T02:06:21.934Z,33.05
2023-04-02T02:08:56.478Z,35.28
2023-04-02T02:11:31.495Z,32.42
2023-04-02T02:14:03.773Z,27.77
2023-04-02T02:16:42.592Z,36.40
2023-04-02T02:19:25.156Z,30.65
2023-04-02T02:21:57.540Z,30.42
2023-04-02T02:24:32.484Z,32.72
2023-04-02T02:27:20.320Z,31.35
2023-04-02T02:29:55.732Z,37.65
2023-04-02T02:32:31.896Z,41.05
2023-04-02T02:35:10.485Z,34.33
2023-04-02T02:37:46.448Z,30.38
2023-04-02T02:40:22.519Z,24.33
2023-04-02T02:42:57.965Z,33.13
2023-04-02T02:45:32.055Z,32.88
2023-04-02T02:48:05.271Z,26.05
2023-04-02T02:50:37.879Z,26.10
2023-04-02T02:53:16.872Z,29.85
2023-04-02T02:55:49.223Z,30.35
2023-04-02T02:58:24.314Z,30.15
2023-04-02T03:00:55.423Z,29.60
2023-04-02T03:03:33.421Z,25.48
2023-04-02T03:06:08.059Z,27.85
2023-04-02T03:08:42.937Z,25.63
2023-04-02T03:11:20.336Z,23.08
2023-04-02T03:13:53.872Z,27.38
2023-04-02T03:16:29.949Z,26.00
2023-04-02T03:19:10.965Z,28.35
2023-04-02T03:21:49.544Z,29.05
2023-04-02T03:24:25.505Z,22.10
2023-04-02T03:27:02.019Z,23.80
2023-04-02T03:29:36.038Z,21.17
2023-04-02T03:32:10.794Z,23.05
2023-04-02T03:34:47.355Z,21.45
2023-04-02T03:37:24.487Z,27.95
2023-04-02T03:39:59.489Z,31.70
2023-04-02T03:42:33.071Z,23.63
2023-04-02T03:45:07.898Z,21.25
2023-04-02T03:47:42.624Z,26.50
2023-04-02T03:50:19.466Z,26.48
2023-04-02T03:52:50.513Z,22.77
2023-04-02T03:55:24.795Z,26.30
2023-04-02T03:58:04.320Z,21.08
2023-04-02T04:00:41.007Z,25.38
2023-04-02T04:03:17.120Z,22.38
2023-04-02T04:05:53.564Z,28.98
2023-04-02T04:08:28.255Z,22.75
2023-04-02T04:11:01.762Z,22.13
2023-04-02T04:13:37.790Z,19.92
2023-04-02T04:16:12.681Z,25.38
2023-04-02T04:18:49.955Z,58.20
2023-04-02T04:21:31.672Z,40.40
2023-04-02T04:24:06.652Z,30.55
2023-04-02T04:26:43.975Z,52.38
2023-04-02T04:29:28.781Z,21.60
2023-04-02T04:32:02.382Z,18.08
2023-04-02T04:34:43.042Z,29.42
2023-04-02T04:37:26.024Z,24.67
2023-04-02T04:40:00.465Z,16.23
2023-04-02T04:42:34.992Z,19.90
2023-04-02T04:45:16.196Z,16.60
2023-04-02T04:47:55.066Z,17.35
2023-04-02T04:50:33.375Z,19.25
2023-04-02T04:53:16.396Z,13.82
2023-04-02T04:55:49.828Z,14.27
2023-04-02T04:58:25.460Z,17.25
2023-04-02T05:01:06.607Z,14.55
2023-04-02T05:03:41.940Z,18.77
2023-04-02T05:06:18.186Z,20.45
2023-04-02T05:08:54.415Z,16.48
2023-04-02T05:11:31.239Z,14.55
2023-04-02T05:14:06.310Z,22.80
2023-04-02T05:16:41.601Z,19.77
2023-04-02T05:19:17.631Z,16.67
2023-04-02T05:21:52.658Z,17.20
2023-04-02T05:24:55.618Z,15.80
2023-04-02T05:27:36.362Z,17.33
2023-04-02T05:30:15.809Z,15.82
2023-04-02T05:32:53.138Z,15.48
2023-04-02T05:35:31.441Z,14.43
2023-04-02T05:38:06.331Z,14.85
2023-04-02T05:40:42.138Z,13.48
2023-04-02T05:43:18.430Z,11.63
2023-04-02T05:45:58.430Z,20.17
2023-04-02T05:48:33.733Z,23.45
2023-04-02T05:51:06.792Z,22.85
2023-04-02T05:53:43.629Z,21.50
2023-04-02T05:56:20.772Z,28.90
2023-04-02T05:58:58.849Z,23.55
2023-04-02T06:01:38.986Z,20.13
2023-04-02T06:04:19.467Z,20.50
2023-04-02T06:06:59.990Z,26.35
2023-04-02T06:09:41.400Z,21.20
2023-04-02T06:12:25.643Z,18.98
2023-04-02T06:14:57.921Z,24.45
2023-04-02T06:17:31.426Z,23.17
2023-04-02T06:20:05.697Z,21.85
2023-04-02T06:22:41.981Z,20.25
2023-04-02T06:25:20.728Z,19.38
2023-04-02T06:27:53.108Z,23.45
2023-04-02T06:30:30.991Z,29.38
2023-04-02T06:33:01.827Z,20.98
2023-04-02T06:35:32.815Z,25.10
2023-04-02T06:38:07.771Z,26.98
2023-04-02T06:40:45.004Z,25.30
2023-04-02T06:43:23.784Z,20.35
2023-04-02T06:46:00.422Z,22.00
2023-04-02T06:48:34.096Z,25.40
2023-04-02T06:51:10.012Z,21.75
2023-04-02T06:53:44.037Z,24.02
2023-04-02T06:56:25.349Z,21.38
2023-04-02T06:58:56.448Z,30.33
2023-04-02T07:01:36.463Z,24.02
2023-04-02T07:04:07.348Z,20.80
2023-04-02T07:06:37.914Z,26.25
2023-04-02T07:09:12.381Z,22.48
2023-04-02T07:11:42.870Z,18.95
2023-04-02T07:14:15.223Z,20.30
2023-04-02T07:16:47.734Z,26.02
2023-04-02T07:19:23.240Z,23.20
2023-04-02T07:21:53.593Z,24.77
2023-04-02T07:24:24.709Z,24.70
2023-04-02T07:26:55.278Z,26.67
2023-04-02T07:29:25.691Z,25.23
2023-04-02T07:31:57.858Z,23.63
2023-04-02T07:34:28.642Z,26.98
2023-04-02T07:36:59.744Z,23.67
2023-04-02T07:39:30.458Z,24.40
2023-04-02T07:42:03.278Z,24.77
2023-04-02T07:44:33.859Z,31.10
2023-04-02T07:47:06.222Z,23.75
2023-04-02T07:49:36.925Z,28.40
2023-04-02T07:52:07.762Z,32.53
2023-04-02T07:54:39.054Z,24.73
2023-04-02T07:57:10.566Z,28.17
2023-04-02T07:59:43.797Z,23.67
2023-04-02T08:02:23.829Z,19.98
2023-04-02T08:04:55.824Z,22.70
2023-04-02T08:07:27.469Z,26.75
2023-04-02T08:09:58.964Z,34.88
2023-04-02T08:12:30.499Z,24.25
2023-04-02T08:15:02.088Z,20.92
2023-04-02T08:17:35.849Z,27.42
2023-04-02T08:20:09.079Z,36.42
2023-04-02T08:22:40.695Z,33.50
2023-04-02T08:25:13.625Z,46.40
2023-04-02T08:27:45.370Z,25.05
2023-04-02T08:30:17.890Z,30.20
2023-04-02T08:32:51.327Z,29.17
2023-04-02T08:35:24.713Z,24.67
2023-04-02T08:37:56.244Z,25.95
2023-04-02T08:40:32.742Z,24.95
2023-04-02T08:43:33.515Z,29.17
2023-04-02T08:46:12.847Z,26.55
2023-04-02T08:48:51.938Z,31.58
2023-04-02T08:51:27.433Z,27.52
2023-04-02T08:54:03.429Z,23.35
2023-04-02T08:56:41.330Z,29.42
2023-04-02T08:59:22.464Z,26.10
2023-04-02T09:02:00.565Z,28.10
2023-04-02T09:04:38.060Z,24.10
2023-04-02T09:07:09.944Z,28.67
2023-04-02T09:09:42.213Z,22.10
2023-04-02T09:12:28.982Z,29.73
2023-04-02T09:15:09.886Z,24.10
2023-04-02T09:17:54.016Z,25.30
2023-04-02T09:20:29.689Z,27.17
2023-04-02T09:23:01.419Z,30.10
2023-04-02T09:25:34.599Z,26.58
2023-04-02T09:28:07.693Z,26.35
2023-04-02T09:30:56.946Z,29.77
2023-04-02T09:33:46.303Z,24.35
2023-04-02T09:36:37.251Z,28.50
2023-04-02T09:39:11.014Z,27.10
2023-04-02T09:41:42.883Z,25.55
2023-04-02T09:44:33.438Z,28.33
2023-04-02T09:47:06.943Z,24.38
2023-04-02T09:49:39.799Z,27.98
2023-04-02T09:52:25.207Z,33.17
2023-04-02T09:55:22.830Z,31.10
2023-04-02T09:58:09.686Z,27.88
2023-04-02T10:00:42.262Z,57.10
2023-04-02T10:03:27.184Z,54.80
2023-04-02T10:06:15.071Z,46.67
2023-04-02T10:08:48.977Z,31.10
2023-04-02T10:11:28.836Z,30.17
2023-04-02T10:14:06.621Z,32.22
2023-04-02T10:16:42.562Z,32.00
2023-04-02T10:19:21.970Z,30.30
2023-04-02T10:21:55.135Z,27.48
2023-04-02T10:24:31.664Z,28.00
2023-04-02T10:27:13.613Z,33.05
2023-04-02T10:30:04.058Z,37.88
2023-04-02T10:32:40.784Z,29.05
2023-04-02T10:35:20.364Z,38.47
2023-04-02T10:38:18.584Z,36.67
2023-04-02T10:40:59.878Z,44.33
2023-04-02T10:44:18.969Z,37.92
2023-04-02T10:47:04.569Z,34.50
2023-04-02T10:49:44.461Z,45.70
2023-04-02T10:52:23.420Z,34.43
2023-04-02T10:54:56.753Z,31.70
2023-04-02T10:57:40.495Z,36.63
2023-04-02T11:00:24.286Z,42.85
2023-04-02T11:03:02.308Z,32.95
2023-04-02T11:05:41.577Z,36.42
2023-04-02T11:08:19.759Z,36.38
2023-04-02T11:10:54.006Z,37.03
2023-04-02T11:13:34.264Z,36.53
2023-04-02T11:16:08.824Z,34.10
2023-04-02T11:18:39.657Z,35.83
2023-04-02T11:21:14.088Z,43.35
2023-04-02T11:24:01.246Z,35.55
2023-04-02T11:26:38.316Z,33.95
2023-04-02T11:29:23.758Z,27.35
2023-04-02T11:32:16.283Z,33.15
2023-04-02T11:35:07.541Z,34.17
2023-04-02T11:37:40.432Z,35.92
2023-04-02T11:40:51.323Z,31.35
2023-04-02T11:44:00.664Z,31.77
2023-04-02T11:46:52.790Z,27.83
2023-04-02T11:49:43.954Z,37.00
2023-04-02T11:52:28.305Z,32.30
2023-04-02T11:55:21.261Z,31.27
2023-04-02T11:58:14.486Z,36.20
2023-04-02T12:01:04.974Z,30.73
2023-04-02T12:04:04.056Z,39.10
2023-04-02T12:07:03.904Z,32.00
2023-04-02T12:09:46.584Z,26.50
2023-04-02T12:12:27.293Z,28.55
2023-04-02T12:15:02.047Z,34.83
2023-04-02T12:17:36.464Z,27.08
2023-04-02T12:20:25.761Z,28.83
2023-04-02T12:22:58.806Z,32.05
2023-04-02T12:25:32.312Z,31.50
2023-04-02T12:28:21.534Z,38.17
2023-04-02T12:30:53.317Z,31.33
2023-04-02T12:33:34.708Z,29.27
2023-04-02T12:36:10.845Z,31.33
2023-04-02T12:38:48.602Z,36.35
2023-04-02T12:41:31.071Z,35.70
2023-04-02T12:44:04.140Z,33.22
2023-04-02T12:46:37.636Z,32.88
2023-04-02T12:49:11.188Z,29.88
2023-04-02T12:51:43.467Z,37.85
2023-04-02T12:54:18.370Z,34.13
2023-04-02T12:56:49.178Z,33.70
2023-04-02T12:59:44.495Z,31.77
2023-04-02T13:02:21.968Z,29.20
2023-04-02T13:05:04.991Z,36.33
2023-04-02T13:07:40.318Z,37.47
2023-04-02T13:10:29.765Z,35.72
2023-04-02T13:13:02.327Z,34.38
2023-04-02T13:15:35.254Z,30.45
2023-04-02T13:18:11.040Z,34.33
2023-04-02T13:20:45.842Z,32.95
2023-04-02T13:23:37.076Z,28.33
2023-04-02T13:26:19.846Z,27.88
2023-04-02T13:29:00.221Z,29.85
2023-04-02T13:31:30.942Z,38.72
2023-04-02T13:34:01.584Z,26.88
2023-04-02T13:36:34.380Z,34.85
2023-04-02T13:39:09.502Z,29.10
2023-04-02T13:41:46.992Z,28.17
2023-04-02T13:44:27.655Z,34.95
2023-04-02T13:46:58.998Z,30.70
2023-04-02T13:49:33.285Z,32.67
2023-04-02T13:52:06.074Z,35.50
2023-04-02T13:54:54.412Z,33.38
2023-04-02T13:57:24.940Z,32.47
2023-04-02T13:59:55.472Z,29.80
2023-04-02T14:02:28.273Z,26.85
2023-04-02T14:05:32.328Z,29.13
2023-04-02T14:08:37.593Z,36.28
2023-04-02T14:11:23.830Z,33.47
2023-04-02T14:14:22.052Z,34.38
2023-04-02T14:17:02.744Z,33.88
2023-04-02T14:19:48.924Z,28.08
2023-04-02T14:22:31.510Z,31.98
2023-04-02T14:25:12.292Z,32.08
2023-04-02T14:28:56.186Z,35.10
2023-04-02T14:31:48.145Z,34.65
2023-04-02T14:34:47.548Z,35.17
2023-04-02T14:37:43.465Z,28.30
2023-04-02T14:40:33.885Z,33.33
2023-04-02T14:43:53.966Z,28.15
2023-04-02T14:47:01.878Z,31.85
2023-04-02T14:49:41.113Z,29.77
2023-04-02T14:55:58.014Z,32.40
2023-04-02T14:58:33.695Z,31.95
2023-04-02T15:01:14.805Z,41.33
2023-04-02T15:03:59.964Z,35.35
2023-04-02T15:06:42.733Z,36.35
2023-04-02T15:09:26.218Z,32.78
2023-04-02T15:12:29.534Z,28.58
2023-04-02T15:15:09.795Z,36.33
2023-04-02T15:17:45.077Z,33.78
2023-04-02T15:20:22.862Z,32.47
2023-04-02T15:23:26.798Z,34.42
2023-04-02T15:26:09.358Z,30.48
2023-04-02T15:28:46.111Z,29.40
2023-04-02T15:31:22.743Z,33.95
2023-04-02T15:34:06.652Z,29.35
2023-04-02T15:37:07.463Z,28.58
2023-04-02T15:39:57.790Z,29.77
2023-04-02T15:42:34.008Z,30.17
2023-04-02T15:45:29.648Z,31.05
2023-04-02T15:48:38.589Z,32.28
2023-04-02T15:51:45.307Z,30.60
2023-04-02T15:54:31.261Z,32.22
2023-04-02T15:57:19.878Z,32.53
2023-04-02T16:00:12.446Z,33.10
2023-04-02T16:03:10.136Z,35.83
2023-04-02T16:06:22.356Z,34.47
2023-04-02T16:09:09.473Z,27.55
2023-04-02T16:11:55.138Z,28.42
2023-04-02T16:14:42.031Z,34.80
2023-04-02T16:17:42.444Z,34.90
2023-04-02T16:20:25.474Z,29.08
2023-04-02T16:23:03.242Z,31.02
2023-04-02T16:25:46.465Z,34.58
2023-04-02T16:28:33.172Z,32.42
2023-04-02T16:31:17.498Z,28.75
2023-04-02T16:34:06.437Z,31.63
2023-04-02T16:36:53.879Z,32.83
2023-04-02T16:39:39.257Z,28.42
2023-04-02T16:42:29.955Z,37.45
2023-04-02T16:45:16.400Z,30.98
2023-04-02T16:48:08.939Z,35.45
2023-04-02T16:51:05.255Z,33.00
2023-04-02T16:54:01.519Z,38.92
2023-04-02T16:57:04.064Z,32.28
2023-04-02T17:00:04.166Z,32.65
2023-04-02T17:03:26.984Z,33.88
2023-04-02T17:06:43.773Z,35.80
2023-04-02T17:09:35.449Z,29.55
2023-04-02T17:12:25.942Z,36.90
2023-04-02T17:15:40.606Z,34.80
2023-04-02T17:18:32.687Z,34.67
2023-04-02T17:21:09.667Z,35.70
2023-04-02T17:24:01.041Z,36.20
2023-04-02T17:26:36.160Z,42.53
2023-04-02T17:29:35.044Z,35.20
2023-04-02T17:32:15.905Z,37.20
2023-04-02T17:34:51.773Z,32.10
2023-04-02T17:37:43.913Z,36.85
2023-04-02T17:40:26.599Z,31.20
2023-04-02T17:43:05.358Z,36.53
2023-04-02T17:45:48.660Z,36.05
2023-04-02T17:48:25.651Z,36.55
2023-04-02T17:51:13.502Z,37.58
2023-04-02T17:54:01.310Z,41.88
2023-04-02T17:56:48.350Z,30.58
2023-04-02T17:59:38.514Z,31.85
2023-04-02T18:02:31.708Z,32.67
2023-04-02T18:05:23.954Z,35.88
2023-04-02T18:08:13.247Z,39.42
2023-04-02T18:11:02.418Z,28.70
2023-04-02T18:13:49.876Z,36.28
2023-04-02T18:16:47.035Z,33.45
2023-04-02T18:19:20.798Z,34.83
2023-04-02T18:21:57.577Z,36.88
2023-04-02T18:24:49.371Z,36.65
2023-04-02T18:27:49.020Z,35.40
2023-04-02T18:30:26.101Z,34.08
2023-04-02T18:33:44.942Z,32.13
2023-04-02T18:36:31.084Z,44.03
2023-04-02T18:39:23.206Z,36.55
2023-04-02T18:42:10.385Z,41.17
2023-04-02T18:45:05.665Z,36.03
2023-04-02T18:48:04.815Z,28.63
2023-04-02T18:50:49.523Z,34.13
2023-04-02T18:53:26.001Z,46.50
2023-04-02T18:56:07.623Z,36.50
2023-04-02T18:58:53.656Z,37.15
2023-04-02T19:01:28.760Z,38.42
2023-04-02T19:04:08.824Z,24.10
2023-04-02T19:09:17.240Z,71.60
2023-04-02T19:11:55.216Z,52.47
2023-04-02T19:14:27.453Z,93.47
2023-04-02T19:17:14.835Z,39.80
2023-04-02T19:19:59.819Z,43.92
2023-04-02T19:22:40.035Z,44.65
2023-04-02T19:25:32.629Z,45.42
2023-04-02T19:28:16.581Z,34.40
2023-04-02T19:31:07.537Z,31.70
2023-04-02T19:33:50.782Z,44.58
2023-04-02T19:36:41.747Z,43.17
2023-04-02T19:39:48.226Z,40.85
2023-04-02T19:42:31.168Z,45.88
2023-04-02T19:45:01.973Z,40.35
2023-04-02T19:47:34.539Z,40.13
2023-04-02T19:50:10.244Z,30.40
2023-04-02T19:52:42.754Z,35.90
2023-04-02T19:55:15.378Z,38.75
2023-04-02T19:57:45.908Z,43.13
2023-04-02T20:00:30.900Z,40.30
2023-04-02T20:03:03.007Z,37.78
2023-04-02T20:05:33.540Z,42.67
2023-04-02T20:08:03.963Z,34.83
2023-04-02T20:10:34.588Z,47.88
2023-04-02T20:13:05.191Z,41.95
2023-04-02T20:15:35.931Z,70.68
2023-04-02T20:18:08.657Z,58.35
2023-04-02T20:20:39.994Z,104.18
2023-04-02T20:23:10.553Z,46.90
2023-04-02T20:25:42.401Z,71.22
2023-04-02T20:28:12.743Z,63.00
2023-04-02T20:30:43.318Z,56.47
2023-04-02T20:33:15.542Z,67.78
2023-04-02T20:35:46.174Z,64.10
2023-04-02T20:38:16.769Z,48.50
2023-04-02T20:40:53.589Z,44.38
2023-04-02T20:43:24.220Z,61.80
2023-04-02T20:45:58.892Z,50.47
2023-04-02T20:48:33.093Z,68.35
2023-04-02T20:51:05.069Z,93.45
2023-04-02T20:53:36.848Z,57.17
2023-04-02T20:56:09.033Z,93.45
2023-04-02T20:58:40.844Z,78.25
2023-04-02T21:01:13.907Z,80.70
2023-04-02T21:03:46.255Z,81.28
2023-04-02T21:06:21.248Z,74.40
2023-04-02T21:08:52.517Z,120.38
2023-04-02T21:11:23.903Z,88.50
2023-04-02T21:13:54.372Z,84.50
2023-04-02T21:16:29.162Z,43.25
2023-04-02T21:19:04.119Z,71.32
2023-04-02T21:21:35.020Z,64.35
2023-04-02T21:24:07.179Z,47.80
2023-04-02T21:26:52.167Z,77.75
2023-04-02T21:29:29.399Z,33.40
2023-04-02T21:32:03.549Z,86.30
2023-04-02T21:34:43.291Z,35.22
2023-04-02T21:37:14.806Z,71.57
2023-04-02T21:39:46.281Z,40.28
2023-04-02T21:42:17.783Z,40.35
2023-04-02T21:44:50.074Z,40.90
2023-04-02T21:47:24.810Z,29.25
2023-04-02T21:49:58.109Z,70.90
2023-04-02T21:52:29.655Z,63.75
2023-04-02T21:55:01.175Z,51.03
2023-04-02T21:57:32.663Z,48.60
2023-04-02T22:00:09.268Z,39.83
2023-04-02T22:02:40.986Z,48.25
2023-04-02T22:05:14.610Z,35.75
2023-04-02T22:07:47.067Z,52.40
2023-04-02T22:10:18.839Z,40.92
2023-04-02T22:12:50.485Z,38.67
2023-04-02T22:15:22.220Z,31.58
2023-04-02T22:17:53.575Z,35.25
2023-04-02T22:20:27.101Z,35.80
2023-04-02T22:22:58.934Z,36.78
2023-04-02T22:25:30.430Z,32.97
2023-04-02T22:28:02.123Z,35.47
2023-04-02T22:30:33.898Z,35.72
2023-04-02T22:33:05.825Z,28.55
2023-04-02T22:35:41.447Z,27.98
2023-04-02T22:38:13.939Z,32.40
2023-04-02T22:40:45.158Z,36.97
2023-04-02T22:43:16.782Z,42.60
2023-04-02T22:45:48.858Z,41.17
2023-04-02T22:48:21.692Z,47.63
2023-04-02T22:50:56.404Z,49.28
2023-04-02T22:53:28.345Z,45.88
2023-04-02T22:56:04.695Z,49.28
2023-04-02T22:58:36.511Z,48.47
2023-04-02T23:01:09.407Z,41.17
2023-04-02T23:03:41.472Z,54.42
2023-04-02T23:06:16.413Z,44.33
2023-04-02T23:08:48.497Z,40.45
2023-04-02T23:11:22.444Z,50.67
2023-04-02T23:13:55.977Z,49.60
2023-04-02T23:16:29.559Z,53.75
2023-04-02T23:19:01.615Z,51.45
2023-04-02T23:21:35.078Z,62.10
2023-04-02T23:24:06.587Z,51.53
2023-04-02T23:26:40.192Z,51.72
2023-04-02T23:29:12.679Z,58.17
2023-04-02T23:31:44.636Z,58.60
2023-04-02T23:34:16.449Z,48.58
2023-04-02T23:36:49.637Z,66.55
2023-04-02T23:39:21.663Z,54.25
2023-04-02T23:41:53.487Z,54.80
2023-04-02T23:44:25.519Z,51.85
2023-04-02T23:46:57.562Z,57.60
2023-04-02T23:49:29.568Z,53.17
2023-04-02T23:52:02.652Z,56.10
2023-04-02T23:54:39.836Z,53.35
2023-04-02T23:57:12.971Z,53.38
2023-04-02T23:59:44.590Z,52.25
